Flight Track Log - Related Links

Times and Time Zones

All times are in EDT time to prevent confusion due to time zone crossing. See the EJA829P flight status page for this flight to view local times or setup timezone preferences in your user account.

Time Position Orientation Groundspeed Altitude Reporting Facility
EDT Latitude Longitude Course Direction KTS MPH feet Rate Location/Type
Mon 05:16:41 PM 41.2808 -70.7303 228° Southwest 232 267 6,800  Level Boston Center
Mon 05:17:41 PM 41.2817 -70.7967 271° West 200 230 9,600 2,091 Climbing Boston Center
Mon 05:18:53 PM 41.3597 -70.8500 333° Northwest 210 242 11,400 1,955 Climbing Boston Center
Mon 05:19:53 PM 41.4606 -70.9083 337° Northwest 308 354 13,900 2,200 Climbing Boston Center
Mon 05:20:53 PM 41.4847 -70.9992 290° West 289 333 15,800 2,000 Climbing Boston Center
Mon 05:21:00 PM 41.3430 -71.2605 228° Southwest  Level FlightAware
Mon 05:21:53 PM 41.4358 -71.0972 236° Southwest 262 302 17,900  Level Boston Center
Mon 05:22:00 PM 41.2871 -71.3443 228° Southwest  Level FlightAware
Mon 05:22:53 PM 41.3931 -71.1811 236° Southwest 290 334 19,600  Level Boston Center
Mon 05:23:53 PM 41.3461 -71.2733 236° Southwest 305 351 21,200 1,350 Climbing Boston Center
Mon 05:24:53 PM 41.2908 -71.3708 233° Southwest 317 365 22,300 1,100 Climbing Boston Center
Mon 05:25:53 PM 41.2353 -71.4714 234° Southwest 333 383 23,400 850 Climbing Boston Center
Mon 05:26:53 PM 41.1675 -71.5717 228° Southwest 338 389 24,000 300 Climbing Boston Center
Mon 05:27:53 PM 41.1017 -71.6772 230° Southwest 344 396 24,000  Level Boston Center
Mon 05:29:05 PM 41.0375 -71.7797 230° Southwest 363 418 24,000  Level Boston Center
Mon 05:30:05 PM 40.9717 -71.9014 234° Southwest 369 425 24,000  Level Boston Center
Mon 05:31:05 PM 40.8969 -72.0064 227° Southwest 369 425 24,000  Level Boston Center
Mon 05:32:05 PM 40.8306 -72.1108 230° Southwest 369 425 24,000  Level Boston Center
Mon 05:33:05 PM 40.7642 -72.2181 231° Southwest 375 432 24,000  Level Boston Center
Mon 05:34:05 PM 40.7081 -72.2922 225° Southwest 370 426 24,000  Level Boston Center
Mon 05:35:05 PM 40.6394 -72.4044 231° Southwest 370 426 24,000  Level Boston Center
Mon 05:36:05 PM 40.5769 -72.4947 228° Southwest 370 426 24,000 -100 Level Boston Center
Mon 05:38:05 PM 40.4458 -72.7103 231° Southwest 385 443 23,700 -633 Descending New Center
Mon 05:39:05 PM 40.3794 -72.8144 230° Southwest 380 437 22,100 -1,576 Descending New Center
Mon 05:40:03 PM 40.3108 -72.9214 230° Southwest 369 425 20,600 -1,068 Descending New Center
Mon 05:41:03 PM 40.2467 -73.0172 229° Southwest 364 419 20,000 -298 Descending New Center
Mon 05:42:04 PM 40.1822 -73.1128 229° Southwest 359 413 20,000  Level New Center
Mon 05:43:04 PM 40.1197 -73.2111 230° Southwest 359 413 20,000  Level New Center
Mon 05:44:04 PM 40.0572 -73.3092 230° Southwest 359 413 20,000  Level New Center
Mon 05:45:05 PM 39.9947 -73.4044 229° Southwest 359 413 20,000  Level New Center
Mon 05:46:04 PM 39.9364 -73.4917 229° Southwest 354 407 20,000  Level New Center
Mon 05:47:05 PM 39.8694 -73.5892 228° Southwest 359 413 20,000 -1,091 Level New Center
Mon 05:48:05 PM 39.8131 -73.6869 233° Southwest 359 413 17,800 -2,351 Descending New Center
Mon 05:48:42 PM 39.7681 -73.7506 227° Southwest 351 404 16,200 -2,351 Descending Washington Center
Mon 05:49:42 PM 39.7214 -73.8300 233° Southwest 328 377 14,000 -1,109 Descending Washington Center
Mon 05:50:41 PM 39.6683 -73.9119 230° Southwest 311 358 14,000  Level Washington Center
Mon 05:51:42 PM 39.6175 -73.9942 231° Southwest 305 351 14,000  Level Washington Center
Mon 05:52:42 PM 39.5642 -74.0786 231° Southwest 305 351 14,000  Level Washington Center
Mon 05:53:42 PM 39.5050 -74.1661 229° Southwest 310 357 14,000  Level Washington Center
Mon 05:54:40 PM 39.4478 -74.2558 230° Southwest 315 362 14,000  Level Washington Center
Mon 05:55:41 PM 39.3944 -74.3483 233° Southwest 320 368 14,000 -492 Level Washington Center
Mon 05:56:42 PM 39.3539 -74.4456 242° Southwest 320 368 13,000 -992 Descending Washington Center
Mon 05:57:42 PM 39.3319 -74.5558 256° West 320 368 12,000 -655 Descending Washington Center
Mon 05:58:41 PM 39.3033 -74.6528 249° West 309 356 11,700 -454 Descending Washington Center
Mon 05:59:41 PM 39.2981 -74.7467 266° West 299 344 11,100 -988 Descending Washington Center
Mon 06:01:25 PM 39.4167 -74.8667 322° Northwest 270 311 9,000 -951 Descending Philadelphia TRACON
Mon 06:02:25 PM 39.4833 -74.9167 330° Northwest 281 323 8,500 -1,100 Descending Philadelphia TRACON
Mon 06:03:25 PM 39.5500 -74.9667 330° Northwest 275 316 6,800 -1,250 Descending Philadelphia TRACON
Mon 06:04:25 PM 39.6000 -75.0167 322° Northwest 230 265 6,000 -650 Descending Philadelphia TRACON
Mon 06:05:25 PM 39.6500 -75.0667 322° Northwest 202 232 5,500 -500 Descending Philadelphia TRACON
Mon 06:06:25 PM 39.6833 -75.1167 311° West 193 222 5,000 -500 Descending Philadelphia TRACON
Mon 06:07:25 PM 39.7000 -75.1667 293° West 211 243 4,500 -1,000 Descending Philadelphia TRACON
Mon 06:08:25 PM 39.7667 -75.1833 349° North 209 241 3,000 -1,300 Descending Philadelphia TRACON
Mon 06:09:25 PM 39.8000 -75.2000 339° North 138 159 1,900 -1,100 Descending Philadelphia TRACON
Mon 06:10:25 PM 39.8333 -75.2167 339° North 136 157 800 -900 Descending Philadelphia TRACON
Mon 06:11:25 PM 39.8667 -75.2333 339° North 116 133 100 -700 Descending Philadelphia TRACON
Mon 06:13:00 PM 39.8722 -75.2409 North  Level Estimated
Mon 06:20:00 PM 39.8722 -75.2409 North  Level Estimated

Login

Don't have an account? Register now (free) for customized features, flight alerts, and more!